sensor_id;sensor_type;location;lat;lon;timestamp;P1;durP1;ratioP1;P2;durP2;ratioP2
6997;SDS011;3539;47.982;12.238;2022-11-20T00:00:15;3.93;;;3.17;;
6997;SDS011;3539;47.982;12.238;2022-11-20T00:02:42;3.77;;;3.20;;
6997;SDS011;3539;47.982;12.238;2022-11-20T00:05:09;3.97;;;2.97;;
6997;SDS011;3539;47.982;12.238;2022-11-20T00:07:37;4.70;;;3.00;;
6997;SDS011;3539;47.982;12.238;2022-11-20T00:10:04;3.43;;;2.90;;
6997;SDS011;3539;47.982;12.238;2022-11-20T00:12:31;3.57;;;3.00;;
6997;SDS011;3539;47.982;12.238;2022-11-20T00:14:58;3.40;;;3.10;;
6997;SDS011;3539;47.982;12.238;2022-11-20T00:17:25;3.33;;;3.03;;
6997;SDS011;3539;47.982;12.238;2022-11-20T00:19:52;2.93;;;2.70;;
6997;SDS011;3539;47.982;12.238;2022-11-20T00:22:19;3.20;;;2.90;;
6997;SDS011;3539;47.982;12.238;2022-11-20T00:24:47;3.93;;;2.60;;
6997;SDS011;3539;47.982;12.238;2022-11-20T00:27:13;3.20;;;2.90;;
6997;SDS011;3539;47.982;12.238;2022-11-20T00:29:40;3.20;;;2.60;;
6997;SDS011;3539;47.982;12.238;2022-11-20T00:32:07;4.03;;;3.53;;
6997;SDS011;3539;47.982;12.238;2022-11-20T00:34:34;4.47;;;4.07;;
6997;SDS011;3539;47.982;12.238;2022-11-20T00:37:01;3.40;;;3.10;;
6997;SDS011;3539;47.982;12.238;2022-11-20T00:39:27;2.80;;;2.60;;
6997;SDS011;3539;47.982;12.238;2022-11-20T00:41:55;2.57;;;2.37;;
6997;SDS011;3539;47.982;12.238;2022-11-20T00:44:22;3.20;;;2.50;;
6997;SDS011;3539;47.982;12.238;2022-11-20T00:46:49;2.70;;;2.37;;
6997;SDS011;3539;47.982;12.238;2022-11-20T00:49:16;3.33;;;2.33;;
6997;SDS011;3539;47.982;12.238;2022-11-20T00:51:43;3.27;;;2.50;;
6997;SDS011;3539;47.982;12.238;2022-11-20T00:54:09;2.70;;;2.50;;
6997;SDS011;3539;47.982;12.238;2022-11-20T00:56:36;2.93;;;2.50;;
6997;SDS011;3539;47.982;12.238;2022-11-20T00:59:04;2.73;;;2.27;;
6997;SDS011;3539;47.982;12.238;2022-11-20T01:01:31;3.97;;;2.37;;
6997;SDS011;3539;47.982;12.238;2022-11-20T01:03:59;2.47;;;2.20;;
6997;SDS011;3539;47.982;12.238;2022-11-20T01:06:26;3.33;;;2.50;;
6997;SDS011;3539;47.982;12.238;2022-11-20T01:08:54;2.77;;;2.33;;
6997;SDS011;3539;47.982;12.238;2022-11-20T01:11:22;3.67;;;2.40;;
6997;SDS011;3539;47.982;12.238;2022-11-20T01:13:51;2.40;;;2.20;;
6997;SDS011;3539;47.982;12.238;2022-11-20T01:16:21;3.40;;;2.47;;
6997;SDS011;3539;47.982;12.238;2022-11-20T01:18:50;2.33;;;2.13;;
6997;SDS011;3539;47.982;12.238;2022-11-20T01:21:18;2.57;;;2.13;;
6997;SDS011;3539;47.982;12.238;2022-11-20T01:23:47;2.30;;;2.10;;
6997;SDS011;3539;47.982;12.238;2022-11-20T01:26:15;2.40;;;2.20;;
6997;SDS011;3539;47.982;12.238;2022-11-20T01:28:42;2.80;;;2.27;;
6997;SDS011;3539;47.982;12.238;2022-11-20T01:31:13;2.13;;;2.00;;
6997;SDS011;3539;47.982;12.238;2022-11-20T01:33:42;2.47;;;2.27;;
6997;SDS011;3539;47.982;12.238;2022-11-20T01:36:10;2.87;;;2.03;;
6997;SDS011;3539;47.982;12.238;2022-11-20T01:38:37;2.90;;;1.80;;
6997;SDS011;3539;47.982;12.238;2022-11-20T01:41:04;2.70;;;2.20;;
6997;SDS011;3539;47.982;12.238;2022-11-20T01:43:31;2.40;;;1.80;;
6997;SDS011;3539;47.982;12.238;2022-11-20T01:46:01;2.10;;;1.80;;
6997;SDS011;3539;47.982;12.238;2022-11-20T01:48:32;2.83;;;1.77;;
6997;SDS011;3539;47.982;12.238;2022-11-20T01:51:04;2.20;;;1.93;;
6997;SDS011;3539;47.982;12.238;2022-11-20T01:53:32;2.33;;;2.13;;
6997;SDS011;3539;47.982;12.238;2022-11-20T01:56:00;2.40;;;2.20;;
6997;SDS011;3539;47.982;12.238;2022-11-20T01:58:28;2.50;;;2.13;;
6997;SDS011;3539;47.982;12.238;2022-11-20T02:00:57;2.67;;;2.00;;
6997;SDS011;3539;47.982;12.238;2022-11-20T02:03:24;3.53;;;2.20;;
6997;SDS011;3539;47.982;12.238;2022-11-20T02:05:53;2.97;;;2.00;;
6997;SDS011;3539;47.982;12.238;2022-11-20T02:08:24;2.20;;;2.00;;
6997;SDS011;3539;47.982;12.238;2022-11-20T02:10:51;2.50;;;2.00;;
6997;SDS011;3539;47.982;12.238;2022-11-20T02:13:17;2.40;;;2.20;;
6997;SDS011;3539;47.982;12.238;2022-11-20T02:16:02;3.70;;;2.10;;
6997;SDS011;3539;47.982;12.238;2022-11-20T02:18:30;2.17;;;1.97;;
6997;SDS011;3539;47.982;12.238;2022-11-20T02:20:58;3.80;;;2.23;;
6997;SDS011;3539;47.982;12.238;2022-11-20T02:23:32;2.30;;;2.10;;
6997;SDS011;3539;47.982;12.238;2022-11-20T02:26:06;2.43;;;2.23;;
6997;SDS011;3539;47.982;12.238;2022-11-20T02:28:35;3.30;;;2.30;;
6997;SDS011;3539;47.982;12.238;2022-11-20T02:31:02;2.50;;;2.30;;
6997;SDS011;3539;47.982;12.238;2022-11-20T02:33:29;3.30;;;2.50;;
6997;SDS011;3539;47.982;12.238;2022-11-20T02:35:55;2.70;;;2.20;;
6997;SDS011;3539;47.982;12.238;2022-11-20T02:38:22;3.03;;;2.30;;
6997;SDS011;3539;47.982;12.238;2022-11-20T02:40:49;2.37;;;2.17;;
6997;SDS011;3539;47.982;12.238;2022-11-20T02:43:17;2.57;;;2.37;;
6997;SDS011;3539;47.982;12.238;2022-11-20T02:45:44;3.90;;;2.33;;
6997;SDS011;3539;47.982;12.238;2022-11-20T02:48:10;3.07;;;2.40;;
6997;SDS011;3539;47.982;12.238;2022-11-20T02:50:37;3.60;;;2.03;;
6997;SDS011;3539;47.982;12.238;2022-11-20T02:53:05;2.43;;;2.23;;
6997;SDS011;3539;47.982;12.238;2022-11-20T02:55:32;3.23;;;2.60;;
6997;SDS011;3539;47.982;12.238;2022-11-20T02:57:59;2.83;;;2.30;;
6997;SDS011;3539;47.982;12.238;2022-11-20T03:00:27;2.77;;;2.47;;
6997;SDS011;3539;47.982;12.238;2022-11-20T03:02:53;2.73;;;2.40;;
6997;SDS011;3539;47.982;12.238;2022-11-20T03:05:20;2.73;;;2.53;;
6997;SDS011;3539;47.982;12.238;2022-11-20T03:07:47;2.50;;;2.10;;
6997;SDS011;3539;47.982;12.238;2022-11-20T03:10:14;2.87;;;2.67;;
6997;SDS011;3539;47.982;12.238;2022-11-20T03:12:41;2.93;;;2.40;;
6997;SDS011;3539;47.982;12.238;2022-11-20T03:15:08;3.27;;;2.60;;
6997;SDS011;3539;47.982;12.238;2022-11-20T03:17:37;2.70;;;2.50;;
6997;SDS011;3539;47.982;12.238;2022-11-20T03:20:04;2.57;;;2.30;;
6997;SDS011;3539;47.982;12.238;2022-11-20T03:22:32;2.53;;;2.33;;
6997;SDS011;3539;47.982;12.238;2022-11-20T03:24:58;3.00;;;2.70;;
6997;SDS011;3539;47.982;12.238;2022-11-20T03:27:25;2.70;;;2.37;;
6997;SDS011;3539;47.982;12.238;2022-11-20T03:29:52;2.90;;;2.60;;
6997;SDS011;3539;47.982;12.238;2022-11-20T03:32:19;2.77;;;2.50;;
6997;SDS011;3539;47.982;12.238;2022-11-20T03:34:47;3.50;;;2.50;;
6997;SDS011;3539;47.982;12.238;2022-11-20T03:37:13;3.90;;;2.83;;
6997;SDS011;3539;47.982;12.238;2022-11-20T03:39:40;3.07;;;2.57;;
6997;SDS011;3539;47.982;12.238;2022-11-20T03:42:07;2.60;;;2.40;;
6997;SDS011;3539;47.982;12.238;2022-11-20T03:44:54;2.63;;;2.43;;
6997;SDS011;3539;47.982;12.238;2022-11-20T03:47:21;3.17;;;2.67;;
6997;SDS011;3539;47.982;12.238;2022-11-20T03:49:49;3.70;;;2.43;;
6997;SDS011;3539;47.982;12.238;2022-11-20T03:52:16;3.30;;;2.57;;
6997;SDS011;3539;47.982;12.238;2022-11-20T03:54:43;2.70;;;2.50;;
6997;SDS011;3539;47.982;12.238;2022-11-20T03:57:10;2.83;;;2.63;;
6997;SDS011;3539;47.982;12.238;2022-11-20T03:59:37;3.57;;;2.77;;
6997;SDS011;3539;47.982;12.238;2022-11-20T04:02:03;2.93;;;2.53;;
6997;SDS011;3539;47.982;12.238;2022-11-20T04:04:30;3.40;;;3.10;;
6997;SDS011;3539;47.982;12.238;2022-11-20T04:06:58;3.57;;;2.77;;
6997;SDS011;3539;47.982;12.238;2022-11-20T04:09:30;2.90;;;2.70;;
6997;SDS011;3539;47.982;12.238;2022-11-20T04:12:11;3.57;;;3.00;;
6997;SDS011;3539;47.982;12.238;2022-11-20T04:14:37;2.83;;;2.63;;
6997;SDS011;3539;47.982;12.238;2022-11-20T04:17:04;2.77;;;2.33;;
6997;SDS011;3539;47.982;12.238;2022-11-20T04:19:31;3.30;;;2.67;;
6997;SDS011;3539;47.982;12.238;2022-11-20T04:21:59;3.63;;;2.63;;
6997;SDS011;3539;47.982;12.238;2022-11-20T04:24:26;3.13;;;2.83;;
6997;SDS011;3539;47.982;12.238;2022-11-20T04:26:53;2.77;;;2.50;;
6997;SDS011;3539;47.982;12.238;2022-11-20T04:29:19;3.47;;;2.80;;
6997;SDS011;3539;47.982;12.238;2022-11-20T04:31:46;3.00;;;2.70;;
6997;SDS011;3539;47.982;12.238;2022-11-20T04:34:13;2.90;;;2.70;;
6997;SDS011;3539;47.982;12.238;2022-11-20T04:36:39;3.10;;;2.80;;
6997;SDS011;3539;47.982;12.238;2022-11-20T04:39:12;3.00;;;2.70;;
6997;SDS011;3539;47.982;12.238;2022-11-20T04:41:40;4.23;;;3.07;;
6997;SDS011;3539;47.982;12.238;2022-11-20T04:44:07;4.53;;;2.90;;
6997;SDS011;3539;47.982;12.238;2022-11-20T04:46:35;3.20;;;2.90;;
6997;SDS011;3539;47.982;12.238;2022-11-20T04:49:02;3.07;;;2.47;;
6997;SDS011;3539;47.982;12.238;2022-11-20T04:51:32;3.47;;;2.80;;
6997;SDS011;3539;47.982;12.238;2022-11-20T04:53:59;3.20;;;2.90;;
6997;SDS011;3539;47.982;12.238;2022-11-20T04:56:28;3.10;;;2.90;;
6997;SDS011;3539;47.982;12.238;2022-11-20T04:58:54;3.20;;;2.90;;
6997;SDS011;3539;47.982;12.238;2022-11-20T05:01:22;5.67;;;3.13;;
6997;SDS011;3539;47.982;12.238;2022-11-20T05:03:50;3.20;;;2.90;;
6997;SDS011;3539;47.982;12.238;2022-11-20T05:06:18;4.67;;;2.97;;
6997;SDS011;3539;47.982;12.238;2022-11-20T05:08:46;3.20;;;2.90;;
6997;SDS011;3539;47.982;12.238;2022-11-20T05:11:13;3.10;;;2.80;;
6997;SDS011;3539;47.982;12.238;2022-11-20T05:13:42;4.53;;;3.20;;
6997;SDS011;3539;47.982;12.238;2022-11-20T05:16:10;3.67;;;3.37;;
6997;SDS011;3539;47.982;12.238;2022-11-20T05:18:38;4.07;;;3.30;;
6997;SDS011;3539;47.982;12.238;2022-11-20T05:21:05;3.63;;;3.30;;
6997;SDS011;3539;47.982;12.238;2022-11-20T05:23:32;3.53;;;3.23;;
6997;SDS011;3539;47.982;12.238;2022-11-20T05:25:59;3.93;;;3.27;;
6997;SDS011;3539;47.982;12.238;2022-11-20T05:28:27;3.60;;;3.30;;
6997;SDS011;3539;47.982;12.238;2022-11-20T05:31:03;3.60;;;3.30;;
6997;SDS011;3539;47.982;12.238;2022-11-20T05:33:33;3.60;;;3.30;;
6997;SDS011;3539;47.982;12.238;2022-11-20T05:36:00;4.33;;;3.70;;
6997;SDS011;3539;47.982;12.238;2022-11-20T05:38:28;3.77;;;3.47;;
6997;SDS011;3539;47.982;12.238;2022-11-20T05:40:55;4.07;;;3.67;;
6997;SDS011;3539;47.982;12.238;2022-11-20T05:43:21;4.10;;;3.70;;
6997;SDS011;3539;47.982;12.238;2022-11-20T05:45:51;4.33;;;3.97;;
6997;SDS011;3539;47.982;12.238;2022-11-20T05:48:20;4.53;;;4.13;;
6997;SDS011;3539;47.982;12.238;2022-11-20T05:50:47;4.00;;;3.67;;
6997;SDS011;3539;47.982;12.238;2022-11-20T05:53:14;4.90;;;3.73;;
6997;SDS011;3539;47.982;12.238;2022-11-20T05:55:40;4.60;;;4.10;;
6997;SDS011;3539;47.982;12.238;2022-11-20T05:58:07;4.70;;;4.30;;
6997;SDS011;3539;47.982;12.238;2022-11-20T06:00:37;4.57;;;4.17;;
6997;SDS011;3539;47.982;12.238;2022-11-20T06:03:03;4.43;;;4.03;;
6997;SDS011;3539;47.982;12.238;2022-11-20T06:05:32;4.80;;;4.30;;
6997;SDS011;3539;47.982;12.238;2022-11-20T06:08:00;4.77;;;4.33;;
6997;SDS011;3539;47.982;12.238;2022-11-20T06:10:27;4.83;;;4.30;;
6997;SDS011;3539;47.982;12.238;2022-11-20T06:12:56;4.97;;;4.57;;
6997;SDS011;3539;47.982;12.238;2022-11-20T06:15:24;4.77;;;4.37;;
6997;SDS011;3539;47.982;12.238;2022-11-20T06:17:51;5.07;;;4.63;;
6997;SDS011;3539;47.982;12.238;2022-11-20T06:20:18;4.87;;;4.47;;
6997;SDS011;3539;47.982;12.238;2022-11-20T06:22:46;4.97;;;4.50;;
6997;SDS011;3539;47.982;12.238;2022-11-20T06:25:13;5.53;;;4.60;;
6997;SDS011;3539;47.982;12.238;2022-11-20T06:27:40;5.27;;;4.77;;
6997;SDS011;3539;47.982;12.238;2022-11-20T06:30:07;6.87;;;4.73;;
6997;SDS011;3539;47.982;12.238;2022-11-20T06:32:35;5.47;;;5.00;;
6997;SDS011;3539;47.982;12.238;2022-11-20T06:35:02;5.03;;;4.53;;
6997;SDS011;3539;47.982;12.238;2022-11-20T06:37:29;5.17;;;4.67;;
6997;SDS011;3539;47.982;12.238;2022-11-20T06:39:57;5.30;;;4.80;;
6997;SDS011;3539;47.982;12.238;2022-11-20T06:42:24;4.67;;;4.20;;
6997;SDS011;3539;47.982;12.238;2022-11-20T06:44:51;4.53;;;4.10;;
6997;SDS011;3539;47.982;12.238;2022-11-20T06:47:17;5.77;;;4.60;;
6997;SDS011;3539;47.982;12.238;2022-11-20T06:49:44;5.03;;;4.53;;
6997;SDS011;3539;47.982;12.238;2022-11-20T06:52:11;6.37;;;5.33;;
6997;SDS011;3539;47.982;12.238;2022-11-20T06:54:37;5.93;;;5.30;;
6997;SDS011;3539;47.982;12.238;2022-11-20T06:57:06;6.23;;;5.07;;
6997;SDS011;3539;47.982;12.238;2022-11-20T06:59:33;5.77;;;5.27;;
6997;SDS011;3539;47.982;12.238;2022-11-20T07:01:59;5.33;;;4.83;;
6997;SDS011;3539;47.982;12.238;2022-11-20T07:04:26;5.17;;;4.67;;
6997;SDS011;3539;47.982;12.238;2022-11-20T07:06:53;6.40;;;4.87;;
6997;SDS011;3539;47.982;12.238;2022-11-20T07:09:20;5.03;;;4.53;;
6997;SDS011;3539;47.982;12.238;2022-11-20T07:11:47;5.20;;;4.70;;
6997;SDS011;3539;47.982;12.238;2022-11-20T07:14:15;5.10;;;4.60;;
6997;SDS011;3539;47.982;12.238;2022-11-20T07:16:42;5.03;;;4.57;;
6997;SDS011;3539;47.982;12.238;2022-11-20T07:19:09;5.90;;;4.50;;
6997;SDS011;3539;47.982;12.238;2022-11-20T07:21:36;4.90;;;4.40;;
6997;SDS011;3539;47.982;12.238;2022-11-20T07:24:03;5.23;;;4.73;;
6997;SDS011;3539;47.982;12.238;2022-11-20T07:26:30;5.43;;;4.70;;
6997;SDS011;3539;47.982;12.238;2022-11-20T07:28:57;5.70;;;4.93;;
6997;SDS011;3539;47.982;12.238;2022-11-20T07:31:25;4.93;;;4.40;;
6997;SDS011;3539;47.982;12.238;2022-11-20T07:33:52;4.87;;;4.37;;
6997;SDS011;3539;47.982;12.238;2022-11-20T07:36:18;4.30;;;3.87;;
6997;SDS011;3539;47.982;12.238;2022-11-20T07:38:46;4.60;;;4.07;;
6997;SDS011;3539;47.982;12.238;2022-11-20T07:41:12;4.07;;;3.70;;
6997;SDS011;3539;47.982;12.238;2022-11-20T07:43:39;4.70;;;3.63;;
6997;SDS011;3539;47.982;12.238;2022-11-20T07:46:06;3.40;;;3.10;;
6997;SDS011;3539;47.982;12.238;2022-11-20T07:48:34;3.73;;;3.37;;
6997;SDS011;3539;47.982;12.238;2022-11-20T07:51:01;3.77;;;3.07;;
6997;SDS011;3539;47.982;12.238;2022-11-20T07:53:28;4.23;;;3.60;;
6997;SDS011;3539;47.982;12.238;2022-11-20T07:55:55;3.87;;;3.47;;
6997;SDS011;3539;47.982;12.238;2022-11-20T07:58:21;14.50;;;12.13;;
6997;SDS011;3539;47.982;12.238;2022-11-20T08:00:48;18.17;;;14.70;;
6997;SDS011;3539;47.982;12.238;2022-11-20T08:03:15;6.40;;;5.37;;
6997;SDS011;3539;47.982;12.238;2022-11-20T08:05:43;18.73;;;14.87;;
6997;SDS011;3539;47.982;12.238;2022-11-20T08:08:10;9.73;;;7.33;;
6997;SDS011;3539;47.982;12.238;2022-11-20T08:10:38;6.10;;;5.50;;
6997;SDS011;3539;47.982;12.238;2022-11-20T08:13:04;4.53;;;4.13;;
6997;SDS011;3539;47.982;12.238;2022-11-20T08:15:54;4.50;;;4.10;;
6997;SDS011;3539;47.982;12.238;2022-11-20T08:18:20;4.07;;;3.63;;
6997;SDS011;3539;47.982;12.238;2022-11-20T08:20:49;5.13;;;3.93;;
6997;SDS011;3539;47.982;12.238;2022-11-20T08:23:16;4.33;;;3.53;;
6997;SDS011;3539;47.982;12.238;2022-11-20T08:25:43;3.73;;;3.43;;
6997;SDS011;3539;47.982;12.238;2022-11-20T08:28:09;3.83;;;3.43;;
6997;SDS011;3539;47.982;12.238;2022-11-20T08:30:36;3.63;;;3.30;;
6997;SDS011;3539;47.982;12.238;2022-11-20T08:33:04;3.13;;;2.90;;
6997;SDS011;3539;47.982;12.238;2022-11-20T08:35:33;3.97;;;3.10;;
6997;SDS011;3539;47.982;12.238;2022-11-20T08:38:02;3.10;;;2.80;;
6997;SDS011;3539;47.982;12.238;2022-11-20T08:40:29;3.00;;;2.80;;
6997;SDS011;3539;47.982;12.238;2022-11-20T08:42:56;3.83;;;2.37;;
6997;SDS011;3539;47.982;12.238;2022-11-20T08:45:23;3.20;;;2.63;;
6997;SDS011;3539;47.982;12.238;2022-11-20T08:47:50;3.03;;;2.27;;
6997;SDS011;3539;47.982;12.238;2022-11-20T08:50:18;2.70;;;2.43;;
6997;SDS011;3539;47.982;12.238;2022-11-20T08:52:45;4.30;;;2.50;;
6997;SDS011;3539;47.982;12.238;2022-11-20T08:55:13;2.53;;;2.33;;
6997;SDS011;3539;47.982;12.238;2022-11-20T08:57:40;2.30;;;2.10;;
6997;SDS011;3539;47.982;12.238;2022-11-20T09:00:07;2.70;;;2.20;;
6997;SDS011;3539;47.982;12.238;2022-11-20T09:02:34;2.47;;;2.27;;
6997;SDS011;3539;47.982;12.238;2022-11-20T09:05:01;2.43;;;2.23;;
6997;SDS011;3539;47.982;12.238;2022-11-20T09:07:28;2.50;;;2.30;;
6997;SDS011;3539;47.982;12.238;2022-11-20T09:09:56;4.90;;;2.30;;
6997;SDS011;3539;47.982;12.238;2022-11-20T09:12:24;2.10;;;1.90;;
6997;SDS011;3539;47.982;12.238;2022-11-20T09:14:51;2.13;;;2.00;;
6997;SDS011;3539;47.982;12.238;2022-11-20T09:17:18;2.27;;;2.07;;
6997;SDS011;3539;47.982;12.238;2022-11-20T09:19:45;2.10;;;1.90;;
6997;SDS011;3539;47.982;12.238;2022-11-20T09:22:12;2.80;;;2.00;;
6997;SDS011;3539;47.982;12.238;2022-11-20T09:24:39;2.53;;;1.90;;
6997;SDS011;3539;47.982;12.238;2022-11-20T09:27:06;2.33;;;2.10;;
6997;SDS011;3539;47.982;12.238;2022-11-20T09:29:35;2.33;;;2.10;;
6997;SDS011;3539;47.982;12.238;2022-11-20T09:32:01;2.93;;;2.10;;
6997;SDS011;3539;47.982;12.238;2022-11-20T09:34:28;2.50;;;2.00;;
6997;SDS011;3539;47.982;12.238;2022-11-20T09:36:55;3.10;;;2.00;;
6997;SDS011;3539;47.982;12.238;2022-11-20T09:39:22;1.80;;;1.70;;
6997;SDS011;3539;47.982;12.238;2022-11-20T09:41:56;3.03;;;2.20;;
6997;SDS011;3539;47.982;12.238;2022-11-20T09:44:36;2.60;;;1.83;;
6997;SDS011;3539;47.982;12.238;2022-11-20T09:47:12;3.13;;;1.80;;
6997;SDS011;3539;47.982;12.238;2022-11-20T09:49:49;2.20;;;1.70;;
6997;SDS011;3539;47.982;12.238;2022-11-20T09:52:22;1.70;;;1.60;;
6997;SDS011;3539;47.982;12.238;2022-11-20T09:54:54;1.73;;;1.63;;
6997;SDS011;3539;47.982;12.238;2022-11-20T09:57:22;2.07;;;1.83;;
6997;SDS011;3539;47.982;12.238;2022-11-20T09:59:53;1.90;;;1.70;;
6997;SDS011;3539;47.982;12.238;2022-11-20T10:02:25;2.93;;;2.37;;
6997;SDS011;3539;47.982;12.238;2022-11-20T10:04:56;2.47;;;1.70;;
6997;SDS011;3539;47.982;12.238;2022-11-20T10:07:30;1.90;;;1.60;;
6997;SDS011;3539;47.982;12.238;2022-11-20T10:10:02;1.93;;;1.70;;
6997;SDS011;3539;47.982;12.238;2022-11-20T10:12:32;1.90;;;1.80;;
6997;SDS011;3539;47.982;12.238;2022-11-20T10:15:10;1.95;;;1.60;;
6997;SDS011;3539;47.982;12.238;2022-11-20T10:17:53;1.43;;;1.33;;
6997;SDS011;3539;47.982;12.238;2022-11-20T10:20:27;1.87;;;1.40;;
6997;SDS011;3539;47.982;12.238;2022-11-20T10:26:02;1.87;;;1.47;;
6997;SDS011;3539;47.982;12.238;2022-11-20T10:28:34;3.07;;;1.40;;
6997;SDS011;3539;47.982;12.238;2022-11-20T10:31:16;1.37;;;1.27;;
6997;SDS011;3539;47.982;12.238;2022-11-20T10:33:49;1.37;;;1.10;;
6997;SDS011;3539;47.982;12.238;2022-11-20T10:36:19;1.47;;;1.30;;
6997;SDS011;3539;47.982;12.238;2022-11-20T10:38:52;1.23;;;1.13;;
6997;SDS011;3539;47.982;12.238;2022-11-20T10:41:22;1.30;;;1.03;;
6997;SDS011;3539;47.982;12.238;2022-11-20T10:43:52;1.10;;;1.07;;
6997;SDS011;3539;47.982;12.238;2022-11-20T10:46:21;1.57;;;1.00;;
6997;SDS011;3539;47.982;12.238;2022-11-20T10:48:50;1.03;;;0.90;;
6997;SDS011;3539;47.982;12.238;2022-11-20T10:51:35;0.80;;;0.80;;
6997;SDS011;3539;47.982;12.238;2022-11-20T10:54:07;2.00;;;1.20;;
6997;SDS011;3539;47.982;12.238;2022-11-20T10:56:40;1.90;;;1.13;;
6997;SDS011;3539;47.982;12.238;2022-11-20T10:59:12;1.27;;;1.00;;
6997;SDS011;3539;47.982;12.238;2022-11-20T11:01:55;0.90;;;0.90;;
6997;SDS011;3539;47.982;12.238;2022-11-20T11:04:28;1.00;;;0.90;;
6997;SDS011;3539;47.982;12.238;2022-11-20T11:07:04;1.17;;;0.90;;
6997;SDS011;3539;47.982;12.238;2022-11-20T11:09:34;1.23;;;1.00;;
6997;SDS011;3539;47.982;12.238;2022-11-20T11:12:05;1.03;;;0.97;;
6997;SDS011;3539;47.982;12.238;2022-11-20T11:14:41;1.17;;;1.00;;
6997;SDS011;3539;47.982;12.238;2022-11-20T11:17:18;1.23;;;1.03;;
6997;SDS011;3539;47.982;12.238;2022-11-20T11:19:56;1.00;;;0.90;;
6997;SDS011;3539;47.982;12.238;2022-11-20T11:22:24;1.07;;;1.00;;
6997;SDS011;3539;47.982;12.238;2022-11-20T11:24:51;1.58;;;1.08;;
6997;SDS011;3539;47.982;12.238;2022-11-20T11:27:18;0.90;;;0.90;;
6997;SDS011;3539;47.982;12.238;2022-11-20T11:29:46;1.77;;;1.20;;
6997;SDS011;3539;47.982;12.238;2022-11-20T11:32:13;1.23;;;1.07;;
6997;SDS011;3539;47.982;12.238;2022-11-20T11:34:42;1.00;;;0.90;;
6997;SDS011;3539;47.982;12.238;2022-11-20T11:37:11;1.20;;;0.90;;
6997;SDS011;3539;47.982;12.238;2022-11-20T11:39:41;1.37;;;1.10;;
6997;SDS011;3539;47.982;12.238;2022-11-20T11:42:12;0.90;;;0.90;;
6997;SDS011;3539;47.982;12.238;2022-11-20T11:44:43;1.27;;;0.90;;
6997;SDS011;3539;47.982;12.238;2022-11-20T11:47:29;1.53;;;1.20;;
6997;SDS011;3539;47.982;12.238;2022-11-20T11:50:02;1.10;;;0.97;;
6997;SDS011;3539;47.982;12.238;2022-11-20T11:52:44;1.30;;;1.00;;
6997;SDS011;3539;47.982;12.238;2022-11-20T11:55:24;3.00;;;1.37;;
6997;SDS011;3539;47.982;12.238;2022-11-20T11:57:57;1.10;;;1.00;;
6997;SDS011;3539;47.982;12.238;2022-11-20T12:00:31;1.37;;;1.27;;
6997;SDS011;3539;47.982;12.238;2022-11-20T12:03:01;0.90;;;0.90;;
6997;SDS011;3539;47.982;12.238;2022-11-20T12:05:36;1.30;;;1.20;;
6997;SDS011;3539;47.982;12.238;2022-11-20T12:08:11;1.23;;;1.10;;
6997;SDS011;3539;47.982;12.238;2022-11-20T12:10:41;1.70;;;1.20;;
6997;SDS011;3539;47.982;12.238;2022-11-20T12:13:15;4.13;;;3.23;;
6997;SDS011;3539;47.982;12.238;2022-11-20T12:15:52;2.47;;;1.73;;
6997;SDS011;3539;47.982;12.238;2022-11-20T12:18:20;1.93;;;1.30;;
6997;SDS011;3539;47.982;12.238;2022-11-20T12:20:51;1.30;;;1.10;;
6997;SDS011;3539;47.982;12.238;2022-11-20T12:23:22;1.87;;;1.20;;
6997;SDS011;3539;47.982;12.238;2022-11-20T12:25:55;1.20;;;1.10;;
6997;SDS011;3539;47.982;12.238;2022-11-20T12:28:27;2.10;;;1.40;;
6997;SDS011;3539;47.982;12.238;2022-11-20T12:31:10;2.30;;;1.00;;
6997;SDS011;3539;47.982;12.238;2022-11-20T12:33:54;1.30;;;1.03;;
6997;SDS011;3539;47.982;12.238;2022-11-20T12:36:30;1.73;;;1.10;;
6997;SDS011;3539;47.982;12.238;2022-11-20T12:39:11;1.40;;;1.20;;
6997;SDS011;3539;47.982;12.238;2022-11-20T12:41:58;1.30;;;1.20;;
6997;SDS011;3539;47.982;12.238;2022-11-20T12:45:14;1.47;;;1.30;;
6997;SDS011;3539;47.982;12.238;2022-11-20T12:50:57;1.10;;;0.83;;
6997;SDS011;3539;47.982;12.238;2022-11-20T12:53:37;1.13;;;1.03;;
6997;SDS011;3539;47.982;12.238;2022-11-20T12:56:11;1.00;;;1.00;;
6997;SDS011;3539;47.982;12.238;2022-11-20T12:58:47;1.23;;;1.00;;
6997;SDS011;3539;47.982;12.238;2022-11-20T13:01:24;1.60;;;1.20;;
6997;SDS011;3539;47.982;12.238;2022-11-20T13:04:08;1.77;;;1.10;;
6997;SDS011;3539;47.982;12.238;2022-11-20T13:06:43;3.17;;;2.30;;
6997;SDS011;3539;47.982;12.238;2022-11-20T13:09:14;4.03;;;1.20;;
6997;SDS011;3539;47.982;12.238;2022-11-20T13:11:43;1.30;;;1.20;;
6997;SDS011;3539;47.982;12.238;2022-11-20T13:14:13;4.87;;;2.60;;
6997;SDS011;3539;47.982;12.238;2022-11-20T13:16:49;1.10;;;1.00;;
6997;SDS011;3539;47.982;12.238;2022-11-20T13:19:19;1.23;;;1.10;;
6997;SDS011;3539;47.982;12.238;2022-11-20T13:21:47;2.20;;;1.20;;
6997;SDS011;3539;47.982;12.238;2022-11-20T13:24:26;1.00;;;1.00;;
6997;SDS011;3539;47.982;12.238;2022-11-20T13:27:02;1.33;;;1.20;;
6997;SDS011;3539;47.982;12.238;2022-11-20T13:29:30;1.23;;;1.13;;
6997;SDS011;3539;47.982;12.238;2022-11-20T13:32:04;1.47;;;1.20;;
6997;SDS011;3539;47.982;12.238;2022-11-20T13:34:33;1.20;;;1.10;;
6997;SDS011;3539;47.982;12.238;2022-11-20T13:37:01;1.60;;;1.20;;
6997;SDS011;3539;47.982;12.238;2022-11-20T13:39:31;1.30;;;1.20;;
6997;SDS011;3539;47.982;12.238;2022-11-20T13:41:59;1.20;;;1.10;;
6997;SDS011;3539;47.982;12.238;2022-11-20T13:44:29;2.57;;;1.27;;
6997;SDS011;3539;47.982;12.238;2022-11-20T13:46:58;1.90;;;1.10;;
6997;SDS011;3539;47.982;12.238;2022-11-20T13:49:26;1.30;;;1.20;;
6997;SDS011;3539;47.982;12.238;2022-11-20T13:51:58;1.30;;;1.17;;
6997;SDS011;3539;47.982;12.238;2022-11-20T13:54:47;1.30;;;1.20;;
6997;SDS011;3539;47.982;12.238;2022-11-20T14:00:23;1.30;;;1.20;;
6997;SDS011;3539;47.982;12.238;2022-11-20T14:02:57;1.50;;;1.30;;
6997;SDS011;3539;47.982;12.238;2022-11-20T14:05:29;2.23;;;2.03;;
6997;SDS011;3539;47.982;12.238;2022-11-20T14:07:59;1.93;;;1.50;;
6997;SDS011;3539;47.982;12.238;2022-11-20T14:10:30;2.03;;;1.30;;
6997;SDS011;3539;47.982;12.238;2022-11-20T14:12:58;1.47;;;1.37;;
6997;SDS011;3539;47.982;12.238;2022-11-20T14:15:26;1.77;;;1.37;;
6997;SDS011;3539;47.982;12.238;2022-11-20T14:17:54;1.60;;;1.30;;
6997;SDS011;3539;47.982;12.238;2022-11-20T14:20:23;2.00;;;1.40;;
6997;SDS011;3539;47.982;12.238;2022-11-20T14:22:51;3.50;;;2.20;;
6997;SDS011;3539;47.982;12.238;2022-11-20T14:25:19;1.70;;;1.60;;
6997;SDS011;3539;47.982;12.238;2022-11-20T14:27:51;1.50;;;1.40;;
6997;SDS011;3539;47.982;12.238;2022-11-20T14:30:20;1.70;;;1.57;;
6997;SDS011;3539;47.982;12.238;2022-11-20T14:32:48;2.57;;;1.50;;
6997;SDS011;3539;47.982;12.238;2022-11-20T14:35:17;2.67;;;1.50;;
6997;SDS011;3539;47.982;12.238;2022-11-20T14:37:49;1.50;;;1.40;;
6997;SDS011;3539;47.982;12.238;2022-11-20T14:40:28;1.87;;;1.53;;
6997;SDS011;3539;47.982;12.238;2022-11-20T14:42:59;1.53;;;1.40;;
6997;SDS011;3539;47.982;12.238;2022-11-20T14:45:26;1.80;;;1.70;;
6997;SDS011;3539;47.982;12.238;2022-11-20T14:47:55;2.10;;;1.90;;
6997;SDS011;3539;47.982;12.238;2022-11-20T14:50:23;2.37;;;1.90;;
6997;SDS011;3539;47.982;12.238;2022-11-20T14:52:53;2.93;;;2.03;;
6997;SDS011;3539;47.982;12.238;2022-11-20T14:55:31;2.60;;;2.07;;
6997;SDS011;3539;47.982;12.238;2022-11-20T14:58:01;1.70;;;1.60;;
6997;SDS011;3539;47.982;12.238;2022-11-20T15:00:29;1.70;;;1.57;;
6997;SDS011;3539;47.982;12.238;2022-11-20T15:02:57;2.10;;;1.90;;
6997;SDS011;3539;47.982;12.238;2022-11-20T15:05:25;2.00;;;1.80;;
6997;SDS011;3539;47.982;12.238;2022-11-20T15:08:05;1.67;;;1.57;;
6997;SDS011;3539;47.982;12.238;2022-11-20T15:10:33;1.73;;;1.63;;
6997;SDS011;3539;47.982;12.238;2022-11-20T15:13:03;2.37;;;1.67;;
6997;SDS011;3539;47.982;12.238;2022-11-20T15:15:35;2.10;;;1.90;;
6997;SDS011;3539;47.982;12.238;2022-11-20T15:18:32;3.80;;;1.73;;
6997;SDS011;3539;47.982;12.238;2022-11-20T15:21:09;1.80;;;1.70;;
6997;SDS011;3539;47.982;12.238;2022-11-20T15:23:41;3.20;;;1.80;;